createdAt,value
2022-10-31T00:01:39.496Z,98.38
2022-10-31T00:04:07.573Z,100.00
2022-10-31T00:06:35.323Z,100.00
2022-10-31T00:09:05.067Z,100.00
2022-10-31T00:11:34.948Z,100.00
2022-10-31T00:14:07.009Z,100.00
2022-10-31T00:16:45.077Z,100.00
2022-10-31T00:19:12.959Z,98.70
2022-10-31T00:21:40.935Z,98.78
2022-10-31T00:24:09.018Z,99.31
2022-10-31T00:26:36.773Z,100.00
2022-10-31T00:29:07.329Z,100.00
2022-10-31T00:31:35.063Z,100.00
2022-10-31T00:34:04.074Z,100.00
2022-10-31T00:36:31.924Z,98.74
2022-10-31T00:38:59.927Z,98.42
2022-10-31T00:41:27.692Z,100.00
2022-10-31T00:43:56.799Z,100.00
2022-10-31T00:46:24.521Z,100.00
2022-10-31T00:48:52.239Z,100.00
2022-10-31T00:51:19.994Z,100.00
2022-10-31T00:53:47.721Z,100.00
2022-10-31T00:56:15.691Z,100.00
2022-10-31T00:58:43.736Z,98.62
2022-10-31T01:01:11.538Z,97.63
2022-10-31T01:03:40.974Z,97.46
2022-10-31T01:06:14.060Z,98.63
2022-10-31T01:08:41.994Z,100.00
2022-10-31T01:11:24.431Z,100.00
2022-10-31T01:13:54.163Z,100.00
2022-10-31T01:16:24.685Z,100.00
2022-10-31T01:18:57.579Z,100.00
2022-10-31T01:21:29.609Z,100.00
2022-10-31T01:24:03.281Z,100.00
2022-10-31T01:26:33.113Z,99.49
2022-10-31T01:29:04.678Z,100.00
2022-10-31T01:31:38.748Z,100.00
2022-10-31T01:34:07.928Z,100.00
2022-10-31T01:36:38.848Z,98.86
2022-10-31T01:39:09.828Z,99.46
2022-10-31T01:41:44.628Z,97.67
2022-10-31T01:44:15.310Z,97.50
2022-10-31T01:47:00.488Z,98.46
2022-10-31T07:36:49.520Z,100.00
2022-10-31T07:40:19.848Z,100.00
2022-10-31T07:58:08.256Z,87.97
2022-10-31T08:03:00.025Z,88.55
2022-10-31T08:12:02.994Z,77.61
2022-10-31T08:14:35.425Z,69.33
2022-10-31T08:17:07.561Z,68.14
2022-10-31T08:19:55.643Z,65.45
2022-10-31T08:23:13.218Z,69.36
2022-10-31T08:25:51.287Z,64.82
2022-10-31T08:31:42.591Z,67.67
2022-10-31T08:34:38.230Z,68.32
2022-10-31T08:37:24.146Z,61.42
2022-10-31T08:39:55.010Z,62.23
2022-10-31T08:42:23.261Z,53.43
2022-10-31T08:44:51.152Z,55.86
2022-10-31T08:47:22.072Z,59.14
2022-10-31T08:49:49.658Z,59.45
2022-10-31T08:52:17.219Z,58.50
2022-10-31T08:54:47.807Z,54.30
2022-10-31T08:57:34.126Z,53.91
2022-10-31T09:00:01.801Z,58.09
2022-10-31T09:02:47.917Z,58.43
2022-10-31T09:05:15.578Z,57.14
2022-10-31T09:07:43.268Z,60.93
2022-10-31T09:10:10.761Z,57.14
2022-10-31T09:12:39.327Z,60.76
2022-10-31T09:15:29.914Z,55.71
2022-10-31T09:18:11.929Z,54.59
2022-10-31T09:20:48.141Z,55.52
2022-10-31T09:23:23.787Z,55.78
2022-10-31T09:25:52.784Z,53.90
2022-10-31T09:28:38.516Z,55.85
2022-10-31T09:31:16.670Z,60.81
2022-10-31T09:34:02.630Z,62.73
2022-10-31T09:36:54.037Z,56.73
2022-10-31T09:39:25.085Z,54.55
2022-10-31T09:42:07.070Z,51.27
2022-10-31T09:44:45.317Z,50.38
2022-10-31T09:47:35.536Z,52.39
2022-10-31T09:50:34.012Z,57.95
2022-10-31T09:53:29.256Z,56.62
2022-10-31T09:55:58.349Z,62.38
2022-10-31T09:58:29.450Z,56.84
2022-10-31T10:01:01.610Z,57.11
2022-10-31T10:03:47.255Z,62.97
2022-10-31T10:06:40.429Z,61.49
2022-10-31T10:09:37.555Z,60.33
2022-10-31T10:12:43.333Z,56.31
2022-10-31T10:15:19.813Z,56.75
2022-10-31T10:18:01.860Z,55.74
2022-10-31T10:20:29.412Z,56.45
2022-10-31T10:23:42.173Z,55.40
2022-10-31T10:26:21.630Z,59.17
2022-10-31T10:29:31.395Z,58.89
2022-10-31T10:32:31.337Z,61.19
2022-10-31T10:39:56.921Z,58.57
2022-10-31T10:43:04.745Z,61.68
2022-10-31T10:49:53.384Z,59.21
2022-10-31T10:52:44.599Z,62.88
2022-10-31T10:55:38.337Z,63.15
2022-10-31T10:58:09.211Z,58.78
2022-10-31T11:01:12.667Z,57.38
2022-10-31T11:03:43.731Z,58.24
2022-10-31T11:06:27.663Z,58.94
2022-10-31T11:08:55.428Z,60.88
2022-10-31T11:11:32.001Z,60.53
2022-10-31T11:14:06.454Z,60.36
2022-10-31T11:16:41.243Z,64.63
2022-10-31T11:19:41.968Z,63.92
2022-10-31T11:22:17.493Z,63.36
2022-10-31T11:24:45.292Z,61.41
2022-10-31T11:27:16.975Z,61.27
2022-10-31T11:29:45.710Z,59.42
2022-10-31T11:32:27.134Z,60.28
2022-10-31T11:35:00.586Z,59.43
2022-10-31T11:37:30.952Z,58.90
2022-10-31T11:40:01.442Z,62.01
2022-10-31T11:42:36.049Z,59.25
2022-10-31T11:45:15.328Z,58.69
2022-10-31T11:47:47.652Z,58.47
2022-10-31T11:50:39.681Z,59.77
2022-10-31T11:53:17.485Z,59.58
2022-10-31T11:56:21.199Z,61.00
2022-10-31T11:59:18.389Z,60.38
2022-10-31T12:01:51.493Z,60.14
2022-10-31T12:04:22.259Z,59.10
2022-10-31T12:06:51.966Z,58.52
2022-10-31T12:13:29.923Z,57.51
2022-10-31T12:16:06.587Z,57.60
2022-10-31T12:18:43.636Z,60.26
2022-10-31T12:21:42.241Z,57.91
2022-10-31T12:24:32.943Z,58.26
2022-10-31T12:27:09.471Z,57.49
2022-10-31T12:30:11.167Z,58.52
2022-10-31T12:32:55.869Z,58.13
2022-10-31T12:35:41.181Z,57.24
2022-10-31T12:38:31.531Z,56.91
2022-10-31T12:41:15.927Z,55.90
2022-10-31T12:43:49.787Z,55.47
2022-10-31T12:46:46.318Z,54.67
2022-10-31T12:49:54.405Z,54.74
2022-10-31T12:52:50.486Z,55.89
2022-10-31T12:55:39.039Z,54.63
2022-10-31T12:58:25.514Z,53.83
2022-10-31T13:01:10.929Z,55.02
2022-10-31T13:03:47.405Z,56.27
2022-10-31T13:06:22.242Z,55.32
2022-10-31T13:08:55.489Z,54.46
2022-10-31T13:11:31.786Z,53.90
2022-10-31T13:14:16.160Z,54.45
2022-10-31T13:16:51.129Z,55.22
2022-10-31T13:19:36.310Z,55.38
2022-10-31T13:22:12.622Z,55.91
2022-10-31T13:24:53.262Z,53.71
2022-10-31T13:27:37.240Z,53.44
2022-10-31T13:30:07.452Z,53.53
2022-10-31T13:32:44.676Z,53.88
2022-10-31T13:35:20.438Z,54.50
2022-10-31T13:38:15.753Z,54.87
2022-10-31T13:41:16.426Z,52.65
2022-10-31T13:44:05.358Z,51.75
2022-10-31T13:46:32.854Z,53.11
2022-10-31T13:49:00.981Z,54.26
2022-10-31T13:51:46.280Z,54.78
2022-10-31T13:54:32.606Z,54.43
2022-10-31T13:57:00.837Z,53.37
2022-10-31T13:59:30.381Z,53.21
2022-10-31T14:02:02.027Z,53.98
2022-10-31T14:04:46.269Z,54.57
2022-10-31T14:07:22.016Z,54.40
2022-10-31T14:09:56.700Z,54.96
2022-10-31T14:12:44.154Z,53.73
2022-10-31T14:15:21.244Z,54.09
2022-10-31T14:17:52.606Z,55.23
2022-10-31T14:20:20.668Z,55.84
2022-10-31T14:22:48.282Z,53.59
2022-10-31T14:25:34.333Z,54.13
2022-10-31T14:28:18.542Z,54.29
2022-10-31T14:30:54.464Z,54.23
2022-10-31T14:33:25.354Z,54.14
2022-10-31T14:36:01.782Z,55.31
2022-10-31T14:38:37.220Z,56.26
2022-10-31T14:41:33.330Z,55.94
2022-10-31T14:44:22.599Z,57.02
2022-10-31T14:47:32.596Z,56.70
2022-10-31T14:50:39.435Z,57.24
2022-10-31T14:53:14.853Z,57.29
2022-10-31T14:55:49.629Z,58.50
2022-10-31T14:58:40.521Z,57.06
2022-10-31T15:01:08.845Z,59.49
2022-10-31T15:03:44.758Z,57.44
2022-10-31T15:06:26.669Z,57.17
2022-10-31T15:08:58.264Z,57.55
2022-10-31T15:11:27.722Z,56.62
2022-10-31T15:13:57.655Z,59.98
2022-10-31T15:19:03.685Z,58.04
2022-10-31T15:21:32.480Z,61.30
2022-10-31T15:24:02.790Z,59.85
2022-10-31T15:26:38.889Z,60.43
2022-10-31T15:29:15.785Z,60.27
2022-10-31T15:32:16.811Z,60.39
2022-10-31T15:34:45.224Z,63.00
2022-10-31T15:37:15.769Z,62.51
2022-10-31T15:39:44.699Z,63.01
2022-10-31T15:42:33.949Z,62.97
2022-10-31T15:45:06.393Z,65.36
2022-10-31T15:47:34.652Z,65.83
2022-10-31T15:50:04.252Z,66.19
2022-10-31T15:52:48.012Z,66.90
2022-10-31T15:55:24.296Z,67.51
2022-10-31T15:58:05.847Z,68.23
2022-10-31T16:00:36.242Z,69.54
2022-10-31T16:03:06.145Z,69.72
2022-10-31T16:06:00.624Z,69.13
2022-10-31T16:08:30.940Z,69.15
2022-10-31T16:11:07.297Z,69.27
2022-10-31T16:13:39.096Z,69.48
2022-10-31T16:16:45.888Z,70.10
2022-10-31T16:19:06.225Z,71.36
2022-10-31T16:21:39.405Z,71.66
2022-10-31T16:24:31.937Z,72.51
2022-10-31T16:27:08.431Z,74.69
2022-10-31T16:29:47.305Z,75.53
2022-10-31T16:32:37.726Z,75.85
2022-10-31T16:35:11.079Z,76.79
2022-10-31T16:37:42.251Z,77.24
2022-10-31T16:40:14.974Z,78.92
2022-10-31T16:42:44.332Z,80.32
2022-10-31T16:45:19.623Z,80.69
2022-10-31T16:47:47.925Z,80.62
2022-10-31T16:50:24.504Z,80.60
2022-10-31T16:53:13.727Z,80.79
2022-10-31T16:55:47.610Z,80.95
2022-10-31T16:58:24.191Z,80.88
2022-10-31T17:00:53.525Z,81.90
2022-10-31T17:03:21.341Z,81.92
2022-10-31T17:05:49.054Z,81.62
2022-10-31T17:08:16.752Z,80.13
2022-10-31T17:10:46.182Z,80.81
2022-10-31T17:13:39.837Z,80.07
2022-10-31T17:16:07.659Z,79.29
2022-10-31T17:18:35.490Z,80.76
2022-10-31T17:21:06.247Z,79.45
2022-10-31T17:23:33.825Z,80.11
2022-10-31T17:26:01.366Z,80.10
2022-10-31T17:28:28.947Z,79.82
2022-10-31T17:30:59.213Z,80.36
2022-10-31T17:33:27.015Z,80.52
2022-10-31T17:35:56.824Z,80.31
2022-10-31T17:38:24.646Z,80.63
2022-10-31T17:40:52.187Z,80.88
2022-10-31T17:43:19.839Z,81.34
2022-10-31T17:45:47.394Z,82.70
2022-10-31T17:48:15.009Z,82.49
2022-10-31T17:50:42.771Z,84.59
2022-10-31T17:53:10.183Z,82.97
2022-10-31T17:55:37.896Z,83.25
2022-10-31T17:58:05.903Z,83.02
2022-10-31T18:00:33.826Z,84.47
2022-10-31T18:03:03.892Z,83.88
2022-10-31T18:05:32.243Z,85.30
2022-10-31T18:08:03.695Z,84.59
2022-10-31T18:10:32.202Z,84.80
2022-10-31T18:13:03.023Z,85.83
2022-10-31T18:15:30.862Z,86.66
2022-10-31T18:17:58.517Z,86.23
2022-10-31T18:20:26.305Z,85.85
2022-10-31T18:22:56.641Z,86.01
2022-10-31T18:25:24.251Z,87.68
2022-10-31T18:27:51.895Z,88.04
2022-10-31T18:30:19.716Z,87.87
2022-10-31T18:32:51.303Z,87.16
2022-10-31T18:35:19.050Z,88.63
2022-10-31T18:37:46.715Z,87.72
2022-10-31T18:40:36.156Z,88.37
2022-10-31T18:43:08.238Z,90.38
2022-10-31T18:45:53.709Z,89.58
2022-10-31T18:48:37.005Z,89.67
2022-10-31T18:51:21.338Z,88.20
2022-10-31T18:53:54.100Z,88.57
2022-10-31T18:56:22.473Z,90.00
2022-10-31T18:58:50.904Z,90.02
2022-10-31T19:01:20.310Z,91.28
2022-10-31T19:03:54.241Z,91.30
2022-10-31T19:06:22.896Z,91.65
2022-10-31T19:09:01.256Z,92.19
2022-10-31T19:11:44.353Z,92.51
2022-10-31T19:14:14.822Z,91.83
2022-10-31T19:16:42.645Z,91.25
2022-10-31T19:19:11.937Z,91.92
2022-10-31T19:21:39.460Z,92.14
2022-10-31T19:24:07.218Z,92.79
2022-10-31T19:26:35.106Z,92.69
2022-10-31T19:29:02.680Z,92.66
2022-10-31T19:31:34.521Z,91.59
2022-10-31T19:34:04.715Z,92.34
2022-10-31T19:36:32.535Z,91.69
2022-10-31T19:39:02.587Z,93.59
2022-10-31T19:41:45.080Z,93.29
2022-10-31T19:44:15.121Z,92.98
2022-10-31T19:46:53.250Z,93.20
2022-10-31T19:52:10.160Z,92.80
2022-10-31T19:54:37.799Z,93.39
2022-10-31T19:57:05.447Z,92.46
2022-10-31T19:59:38.270Z,93.01
2022-10-31T20:02:19.714Z,93.39
2022-10-31T20:04:49.749Z,93.11
2022-10-31T20:07:17.393Z,93.25
2022-10-31T20:09:46.372Z,92.65
2022-10-31T20:12:14.049Z,93.09
2022-10-31T20:14:43.145Z,92.87
2022-10-31T20:17:10.836Z,93.51
2022-10-31T20:19:38.677Z,93.53
2022-10-31T20:22:20.151Z,94.97
2022-10-31T20:24:47.788Z,94.57
2022-10-31T20:27:17.971Z,95.62
2022-10-31T20:29:54.710Z,95.83
2022-10-31T20:32:22.428Z,96.52
2022-10-31T20:34:50.632Z,96.72
2022-10-31T20:37:18.288Z,95.84
2022-10-31T20:39:46.108Z,96.24
2022-10-31T20:42:24.852Z,97.26
2022-10-31T20:44:52.433Z,96.60
2022-10-31T20:47:23.322Z,95.63
2022-10-31T20:49:52.585Z,94.65
2022-10-31T20:52:20.017Z,93.81
2022-10-31T20:54:47.488Z,93.39
2022-10-31T20:58:03.039Z,96.02
2022-10-31T21:00:51.557Z,96.06
2022-10-31T21:03:19.873Z,94.86
2022-10-31T21:06:02.174Z,93.75
2022-10-31T21:08:32.900Z,95.21
2022-10-31T21:11:01.288Z,94.10
2022-10-31T21:13:29.490Z,94.83
2022-10-31T21:16:04.973Z,94.13
2022-10-31T21:18:35.074Z,94.87
2022-10-31T21:21:12.132Z,95.68
2022-10-31T21:27:27.434Z,96.08
2022-10-31T21:30:18.454Z,95.17
2022-10-31T21:32:58.915Z,95.29
2022-10-31T21:35:48.090Z,95.06
2022-10-31T21:39:35.674Z,96.79
2022-10-31T21:42:23.741Z,95.73
2022-10-31T21:44:57.812Z,94.74
2022-10-31T21:47:44.583Z,96.25
2022-10-31T21:50:15.016Z,99.33
2022-10-31T21:52:43.223Z,99.27
2022-10-31T21:55:15.704Z,100.00
2022-10-31T21:58:05.400Z,98.56
2022-10-31T22:04:44.269Z,93.71
2022-10-31T22:07:21.764Z,94.91
2022-10-31T22:10:27.492Z,95.73
2022-10-31T22:13:02.783Z,95.84
2022-10-31T22:15:34.962Z,95.62
2022-10-31T22:18:06.404Z,95.87
2022-10-31T22:20:45.186Z,95.95
2022-10-31T22:23:17.635Z,95.97
2022-10-31T22:25:45.195Z,96.47
2022-10-31T22:28:15.322Z,98.64
2022-10-31T22:30:51.616Z,100.00
2022-10-31T22:33:26.916Z,100.00
2022-10-31T22:35:58.237Z,98.75
2022-10-31T22:38:29.429Z,100.00
2022-10-31T22:41:02.925Z,98.25
2022-10-31T22:43:30.651Z,100.00
2022-10-31T22:46:04.903Z,100.00
2022-10-31T22:48:36.544Z,100.00
2022-10-31T22:51:11.296Z,97.87
2022-10-31T22:54:06.010Z,97.59
2022-10-31T22:56:47.476Z,96.54
2022-10-31T22:59:19.652Z,96.84
2022-10-31T23:01:55.157Z,96.24
2022-10-31T23:05:25.750Z,96.91
2022-10-31T23:08:01.829Z,96.56
2022-10-31T23:10:35.806Z,97.31
2022-10-31T23:13:53.363Z,98.42
2022-10-31T23:16:22.404Z,97.91
2022-10-31T23:18:52.465Z,97.87
2022-10-31T23:21:43.005Z,97.35
2022-10-31T23:24:13.877Z,98.53
2022-10-31T23:27:00.372Z,97.46
2022-10-31T23:29:30.383Z,96.69
2022-10-31T23:31:59.495Z,98.23
2022-10-31T23:34:29.578Z,98.56
2022-10-31T23:39:36.235Z,98.61
2022-10-31T23:42:06.343Z,98.52
2022-10-31T23:44:35.391Z,97.79
2022-10-31T23:47:07.901Z,97.45
2022-10-31T23:49:40.381Z,98.04
2022-10-31T23:52:08.749Z,97.18
2022-10-31T23:54:36.492Z,96.32
2022-10-31T23:57:06.632Z,97.49
2022-10-31T23:59:34.386Z,96.75
